createdAt,value
2023-10-29T00:01:12.664Z,98599.22
2023-10-29T00:03:47.588Z,98586.81
2023-10-29T00:06:18.042Z,98595.41
2023-10-29T00:08:47.713Z,98588.88
2023-10-29T00:11:15.994Z,98590.53
2023-10-29T00:13:50.720Z,98589.34
2023-10-29T00:16:19.372Z,98588.13
2023-10-29T00:18:46.652Z,98580.56
2023-10-29T00:21:14.439Z,98580.78
2023-10-29T00:23:45.353Z,98591.63
2023-10-29T00:26:14.112Z,98593.50
2023-10-29T00:28:48.721Z,98591.25
2023-10-29T00:31:17.483Z,98593.91
2023-10-29T00:33:49.524Z,98581.25
2023-10-29T00:36:25.945Z,98592.50
2023-10-29T00:38:58.562Z,98596.41
2023-10-29T00:41:32.253Z,98593.53
2023-10-29T00:44:01.754Z,98600.88
2023-10-29T00:46:34.768Z,98605.56
2023-10-29T00:49:04.722Z,98595.81
2023-10-29T00:51:41.627Z,98608.44
2023-10-29T00:54:16.981Z,98610.09
2023-10-29T00:56:47.097Z,98610.69
2023-10-29T00:59:16.185Z,98607.00
2023-10-29T01:01:46.906Z,98602.53
2023-10-29T01:04:18.439Z,98590.88
2023-10-29T01:06:48.122Z,98592.91
2023-10-29T01:09:18.251Z,98591.94
2023-10-29T01:11:48.764Z,98580.31
2023-10-29T01:14:20.668Z,98573.78
2023-10-29T01:16:52.814Z,98576.88
2023-10-29T01:19:21.565Z,98567.88
2023-10-29T01:21:51.449Z,98568.69
2023-10-29T01:24:18.772Z,98578.91
2023-10-29T01:26:47.081Z,98585.25
2023-10-29T01:29:18.983Z,98591.16
2023-10-29T01:31:54.493Z,98587.06
2023-10-29T01:34:22.596Z,98592.38
2023-10-29T01:36:55.388Z,98598.09
2023-10-29T01:39:26.434Z,98592.78
2023-10-29T01:41:57.945Z,98604.63
2023-10-29T01:44:26.570Z,98602.78
2023-10-29T01:46:54.922Z,98592.78
2023-10-29T01:49:25.819Z,98593.00
2023-10-29T01:51:59.000Z,98593.59
2023-10-29T01:54:28.151Z,98596.44
2023-10-29T01:56:57.291Z,98596.84
2023-10-29T01:59:27.121Z,98589.28
2023-10-29T02:02:04.567Z,98598.06
2023-10-29T02:04:38.974Z,98611.31
2023-10-29T02:07:08.696Z,98618.63
2023-10-29T02:09:40.322Z,98610.06
2023-10-29T02:12:08.783Z,98601.06
2023-10-29T02:14:38.148Z,98598.22
2023-10-29T02:17:15.754Z,98610.84
2023-10-29T02:19:46.977Z,98602.28
2023-10-29T02:22:20.259Z,98603.09
2023-10-29T02:24:49.639Z,98613.69
2023-10-29T02:27:20.306Z,98611.84
2023-10-29T02:29:50.325Z,98604.69
2023-10-29T02:32:23.893Z,98595.31
2023-10-29T02:34:51.745Z,98591.44
2023-10-29T02:37:22.381Z,98598.78
2023-10-29T02:39:53.742Z,98597.78
2023-10-29T02:42:26.979Z,98604.06
2023-10-29T02:44:54.568Z,98595.94
2023-10-29T02:47:26.337Z,98599.19
2023-10-29T02:49:58.407Z,98588.41
2023-10-29T02:52:26.870Z,98599.81
2023-10-29T02:54:58.949Z,98599.59
2023-10-29T02:57:27.394Z,98597.97
2023-10-29T02:59:55.384Z,98599.38
2023-10-29T03:02:27.489Z,98606.09
2023-10-29T03:05:01.939Z,98615.03
2023-10-29T03:07:30.384Z,98615.25
2023-10-29T03:09:58.342Z,98605.84
2023-10-29T03:12:27.188Z,98603.63
2023-10-29T03:15:05.824Z,98613.63
2023-10-29T03:17:36.077Z,98623.19
2023-10-29T03:20:05.359Z,98621.94
2023-10-29T03:22:36.749Z,98615.19
2023-10-29T03:25:06.967Z,98610.69
2023-10-29T03:27:37.118Z,98604.81
2023-10-29T03:30:08.336Z,98611.09
2023-10-29T03:32:38.587Z,98602.97
2023-10-29T03:35:10.073Z,98601.53
2023-10-29T03:37:40.038Z,98584.81
2023-10-29T03:40:11.959Z,98591.94
2023-10-29T03:42:50.052Z,98583.41
2023-10-29T03:45:18.405Z,98583.59
2023-10-29T03:47:46.024Z,98583.59
2023-10-29T03:50:18.928Z,98579.31
2023-10-29T03:52:47.029Z,98579.06
2023-10-29T03:55:16.951Z,98583.78
2023-10-29T03:57:46.141Z,98589.44
2023-10-29T04:00:16.454Z,98593.94
2023-10-29T04:02:44.384Z,98599.38
2023-10-29T04:05:15.122Z,98598.56
2023-10-29T04:08:08.234Z,98589.38
2023-10-29T04:10:37.685Z,98598.78
2023-10-29T04:13:10.104Z,98597.53
2023-10-29T04:15:47.191Z,98590.19
2023-10-29T04:18:26.504Z,98601.94
2023-10-29T04:21:13.186Z,98603.16
2023-10-29T04:23:45.700Z,98596.63
2023-10-29T04:26:22.285Z,98596.84
2023-10-29T04:28:52.855Z,98593.19
2023-10-29T04:31:20.490Z,98596.59
2023-10-29T04:33:52.916Z,98608.59
2023-10-29T04:36:26.843Z,98608.81
2023-10-29T04:38:55.075Z,98607.22
2023-10-29T04:41:24.082Z,98598.06
2023-10-29T04:43:53.514Z,98606.22
2023-10-29T04:46:20.640Z,98613.59
2023-10-29T04:48:50.712Z,98612.59
2023-10-29T04:51:23.774Z,98608.19
2023-10-29T04:53:51.490Z,98605.13
2023-10-29T04:56:22.368Z,98594.78
2023-10-29T04:58:50.296Z,98591.72
2023-10-29T05:01:20.388Z,98583.63
2023-10-29T05:03:48.125Z,98592.81
2023-10-29T05:06:21.954Z,98590.38
2023-10-29T05:08:51.196Z,98582.03
2023-10-29T05:11:19.478Z,98588.38
2023-10-29T05:13:50.745Z,98588.19
2023-10-29T05:16:21.438Z,98575.34
2023-10-29T05:18:49.916Z,98580.69
2023-10-29T05:21:22.238Z,98574.00
2023-10-29T05:23:50.847Z,98582.34
2023-10-29T05:26:26.738Z,98582.78
2023-10-29T05:28:56.337Z,98587.25
2023-10-29T05:31:27.359Z,98588.09
2023-10-29T05:33:58.587Z,98590.94
2023-10-29T05:36:29.655Z,98609.50
2023-10-29T05:38:59.656Z,98611.75
2023-10-29T05:41:26.916Z,98617.06
2023-10-29T05:43:53.905Z,98606.03
2023-10-29T05:46:26.262Z,98606.47
2023-10-29T05:48:54.505Z,98605.41
2023-10-29T05:51:28.960Z,98611.31
2023-10-29T05:53:58.564Z,98611.94
2023-10-29T05:56:26.651Z,98615.19
2023-10-29T05:58:57.691Z,98613.78
2023-10-29T06:01:27.302Z,98613.34
2023-10-29T06:03:57.184Z,98611.31
2023-10-29T06:06:28.779Z,98615.38
2023-10-29T06:09:00.275Z,98624.50
2023-10-29T06:11:35.636Z,98626.94
2023-10-29T06:14:04.304Z,98624.06
2023-10-29T06:16:35.724Z,98617.09
2023-10-29T06:19:07.115Z,98598.25
2023-10-29T06:21:46.063Z,98596.63
2023-10-29T06:24:16.226Z,98601.88
2023-10-29T06:26:50.077Z,98605.53
2023-10-29T06:29:21.628Z,98615.31
2023-10-29T06:31:50.221Z,98614.31
2023-10-29T06:34:19.732Z,98619.25
2023-10-29T06:36:48.327Z,98621.25
2023-10-29T06:39:15.927Z,98635.69
2023-10-29T06:41:44.876Z,98640.59
2023-10-29T06:44:13.552Z,98648.06
2023-10-29T06:46:41.401Z,98647.13
2023-10-29T06:49:17.360Z,98645.59
2023-10-29T06:51:51.526Z,98652.19
2023-10-29T06:54:21.725Z,98631.91
2023-10-29T06:56:51.405Z,98615.53
2023-10-29T06:59:21.691Z,98609.84
2023-10-29T07:01:55.893Z,98615.72
2023-10-29T07:04:23.435Z,98616.44
2023-10-29T07:06:54.760Z,98610.66
2023-10-29T07:09:30.532Z,98614.94
2023-10-29T07:12:00.334Z,98610.66
2023-10-29T07:14:29.287Z,98606.59
2023-10-29T07:16:58.635Z,98603.03
2023-10-29T07:19:26.561Z,98597.09
2023-10-29T07:21:54.146Z,98600.63
2023-10-29T07:24:24.608Z,98602.91
2023-10-29T07:26:53.494Z,98613.38
2023-10-29T07:29:26.637Z,98621.88
2023-10-29T07:31:54.799Z,98622.63
2023-10-29T07:34:22.667Z,98636.13
2023-10-29T07:37:00.377Z,98641.22
2023-10-29T07:39:28.888Z,98629.38
2023-10-29T07:42:06.145Z,98630.72
2023-10-29T07:44:38.467Z,98625.78
2023-10-29T07:47:10.050Z,98618.44
2023-10-29T07:49:39.000Z,98620.69
2023-10-29T07:52:08.474Z,98619.72
2023-10-29T07:54:41.124Z,98625.88
2023-10-29T07:57:11.105Z,98631.72
2023-10-29T07:59:45.665Z,98620.25
2023-10-29T08:02:13.296Z,98610.31
2023-10-29T08:04:42.503Z,98622.63
2023-10-29T08:07:10.942Z,98621.03
2023-10-29T08:09:42.711Z,98599.59
2023-10-29T08:12:10.113Z,98599.41
2023-10-29T08:14:38.713Z,98596.53
2023-10-29T08:17:07.393Z,98605.13
2023-10-29T08:19:38.623Z,98615.66
2023-10-29T08:22:09.123Z,98616.69
2023-10-29T08:24:39.834Z,98609.72
2023-10-29T08:27:08.727Z,98614.25
2023-10-29T08:29:46.302Z,98603.31
2023-10-29T08:32:14.807Z,98605.03
2023-10-29T08:34:45.175Z,98609.78
2023-10-29T08:37:13.924Z,98613.09
2023-10-29T08:39:42.363Z,98609.31
2023-10-29T08:42:13.313Z,98607.09
2023-10-29T08:44:46.362Z,98613.16
2023-10-29T08:47:17.470Z,98615.81
2023-10-29T08:49:48.638Z,98612.03
2023-10-29T08:52:17.396Z,98603.94
2023-10-29T08:54:48.514Z,98596.78
2023-10-29T08:57:22.244Z,98592.38
2023-10-29T08:59:53.408Z,98591.72
2023-10-29T09:02:27.949Z,98590.72
2023-10-29T09:04:59.552Z,98585.31
2023-10-29T09:07:30.510Z,98589.53
2023-10-29T09:10:05.208Z,98594.66
2023-10-29T09:12:33.129Z,98596.13
2023-10-29T09:15:00.677Z,98589.94
2023-10-29T09:17:30.508Z,98590.44
2023-10-29T09:20:04.621Z,98582.09
2023-10-29T09:22:32.640Z,98583.06
2023-10-29T09:25:06.258Z,98596.59
2023-10-29T09:27:38.829Z,98589.75
2023-10-29T09:30:12.143Z,98591.16
2023-10-29T09:32:39.580Z,98583.69
2023-10-29T09:35:10.094Z,98587.16
2023-10-29T09:37:41.625Z,98576.78
2023-10-29T09:40:17.615Z,98572.13
2023-10-29T09:42:54.787Z,98590.38
2023-10-29T09:45:27.110Z,98589.91
2023-10-29T09:47:57.222Z,98581.06
2023-10-29T09:50:25.737Z,98579.53
2023-10-29T09:52:58.291Z,98579.88
2023-10-29T09:55:33.003Z,98587.84
2023-10-29T09:58:01.873Z,98590.19
2023-10-29T10:00:35.397Z,98571.53
2023-10-29T10:03:13.888Z,98583.75
2023-10-29T10:05:43.992Z,98586.59
2023-10-29T10:08:23.140Z,98582.91
2023-10-29T10:10:54.001Z,98574.38
2023-10-29T10:13:46.063Z,98579.16
2023-10-29T10:16:45.403Z,98578.84
2023-10-29T10:19:16.380Z,98580.53
2023-10-29T10:21:46.798Z,98571.28
2023-10-29T10:24:14.607Z,98557.84
2023-10-29T10:26:44.951Z,98562.19
2023-10-29T10:29:15.530Z,98550.41
2023-10-29T10:31:43.672Z,98545.44
2023-10-29T10:34:22.582Z,98553.00
2023-10-29T10:36:51.626Z,98556.13
2023-10-29T10:39:25.283Z,98555.56
2023-10-29T10:41:54.434Z,98561.72
2023-10-29T10:44:29.639Z,98558.97
2023-10-29T10:47:00.182Z,98552.34
2023-10-29T10:49:35.514Z,98547.66
2023-10-29T10:52:06.621Z,98538.25
2023-10-29T10:54:36.811Z,98533.19
2023-10-29T10:57:09.524Z,98532.91
2023-10-29T10:59:45.830Z,98530.66
2023-10-29T11:02:19.181Z,98531.03
2023-10-29T11:04:48.120Z,98516.50
2023-10-29T11:07:20.544Z,98503.19
2023-10-29T11:09:53.778Z,98498.34
2023-10-29T11:12:21.618Z,98486.97
2023-10-29T11:15:22.398Z,98482.19
2023-10-29T11:18:04.286Z,98492.88
2023-10-29T11:20:45.233Z,98488.38
2023-10-29T11:23:24.896Z,98476.63
2023-10-29T11:26:16.313Z,98466.84
2023-10-29T11:28:45.906Z,98458.59
2023-10-29T11:31:21.097Z,98455.91
2023-10-29T11:34:12.880Z,98459.88
2023-10-29T11:36:49.187Z,98458.09
2023-10-29T11:39:18.331Z,98455.22
2023-10-29T11:41:48.495Z,98461.13
2023-10-29T11:44:31.357Z,98469.25
2023-10-29T11:47:06.766Z,98471.72
2023-10-29T11:49:47.205Z,98479.78
2023-10-29T11:52:21.819Z,98480.59
2023-10-29T11:54:59.821Z,98472.25
2023-10-29T11:57:28.559Z,98479.41
2023-10-29T12:00:22.403Z,98476.22
2023-10-29T12:02:53.552Z,98481.69
2023-10-29T12:05:21.766Z,98474.91
2023-10-29T12:08:01.135Z,98473.13
2023-10-29T12:10:29.811Z,98463.16
2023-10-29T12:12:58.604Z,98469.88
2023-10-29T12:15:30.984Z,98457.78
2023-10-29T12:17:59.174Z,98456.16
2023-10-29T12:20:30.180Z,98454.78
2023-10-29T12:22:59.366Z,98456.41
2023-10-29T12:25:27.107Z,98446.47
2023-10-29T12:28:03.974Z,98434.31
2023-10-29T12:30:43.392Z,98433.53
2023-10-29T12:33:22.232Z,98425.22
2023-10-29T12:35:56.493Z,98420.94
2023-10-29T12:38:28.661Z,98415.31
2023-10-29T12:41:16.047Z,98425.25
2023-10-29T12:43:54.694Z,98412.56
2023-10-29T12:46:23.153Z,98414.72
2023-10-29T12:49:10.620Z,98403.19
2023-10-29T12:51:55.269Z,98406.41
2023-10-29T12:54:29.544Z,98410.72
2023-10-29T12:57:04.285Z,98406.69
2023-10-29T12:59:38.098Z,98398.34
2023-10-29T13:02:08.773Z,98398.59
2023-10-29T13:04:39.422Z,98393.97
2023-10-29T13:07:11.348Z,98397.72
2023-10-29T13:09:50.124Z,98395.84
2023-10-29T13:12:19.632Z,98406.81
2023-10-29T13:14:53.966Z,98407.81
2023-10-29T13:17:22.369Z,98404.31
2023-10-29T13:19:54.118Z,98392.44
2023-10-29T13:22:23.996Z,98395.63
2023-10-29T13:25:04.094Z,98402.63
2023-10-29T13:27:33.483Z,98395.63
2023-10-29T13:30:00.868Z,98395.09
2023-10-29T13:32:32.229Z,98403.13
2023-10-29T13:35:01.334Z,98389.38
2023-10-29T13:37:30.102Z,98385.31
2023-10-29T13:40:01.974Z,98392.28
2023-10-29T13:42:29.404Z,98379.09
2023-10-29T13:44:58.932Z,98382.56
2023-10-29T13:47:28.061Z,98393.81
2023-10-29T13:49:57.462Z,98387.66
2023-10-29T13:52:26.706Z,98383.88
2023-10-29T13:54:54.861Z,98381.97
2023-10-29T13:57:24.940Z,98370.16
2023-10-29T13:59:53.317Z,98372.22
2023-10-29T14:02:21.365Z,98367.66
2023-10-29T14:04:53.059Z,98363.09
2023-10-29T14:07:22.134Z,98377.88
2023-10-29T14:09:49.784Z,98373.06
2023-10-29T14:12:22.253Z,98372.00
2023-10-29T14:14:59.142Z,98369.00
2023-10-29T14:17:38.386Z,98369.00
2023-10-29T14:20:17.724Z,98362.84
2023-10-29T14:22:48.725Z,98370.63
2023-10-29T14:25:19.227Z,98378.16
2023-10-29T14:27:50.582Z,98373.06
2023-10-29T14:30:19.758Z,98370.34
2023-10-29T14:32:50.540Z,98366.53
2023-10-29T14:35:19.277Z,98362.75
2023-10-29T14:38:06.354Z,98362.19
2023-10-29T14:40:34.066Z,98344.09
2023-10-29T14:43:20.610Z,98341.69
2023-10-29T14:45:55.324Z,98349.44
2023-10-29T14:48:23.051Z,98359.34
2023-10-29T14:50:52.590Z,98358.47
2023-10-29T14:53:26.410Z,98356.81
2023-10-29T14:55:55.211Z,98367.50
2023-10-29T14:58:25.541Z,98363.41
2023-10-29T15:00:54.924Z,98359.31
2023-10-29T15:03:23.923Z,98362.69
2023-10-29T15:05:58.465Z,98364.72
2023-10-29T15:08:29.764Z,98368.81
2023-10-29T15:11:00.994Z,98370.91
2023-10-29T15:13:31.302Z,98364.84
2023-10-29T15:15:59.507Z,98371.97
2023-10-29T15:18:30.533Z,98368.88
2023-10-29T15:21:13.227Z,98365.25
2023-10-29T15:23:44.420Z,98363.47
2023-10-29T15:26:26.852Z,98359.81
2023-10-29T15:28:55.040Z,98362.59
2023-10-29T15:31:27.189Z,98359.22
2023-10-29T15:34:05.438Z,98358.03
2023-10-29T15:36:33.610Z,98371.25
2023-10-29T15:39:02.868Z,98376.75
2023-10-29T15:41:32.254Z,98367.50
2023-10-29T15:44:05.726Z,98367.91
2023-10-29T15:46:39.618Z,98371.53
2023-10-29T15:49:08.390Z,98368.47
2023-10-29T15:51:36.603Z,98378.25
2023-10-29T15:54:13.115Z,98370.63
2023-10-29T15:56:39.973Z,98374.75
2023-10-29T15:59:10.470Z,98376.50
2023-10-29T16:01:39.042Z,98384.66
2023-10-29T16:04:11.719Z,98381.88
2023-10-29T16:06:39.379Z,98385.75
2023-10-29T16:09:12.413Z,98385.44
2023-10-29T16:11:41.501Z,98388.22
2023-10-29T16:14:13.703Z,98399.88
2023-10-29T16:16:43.461Z,98400.00
2023-10-29T16:19:12.463Z,98399.91
2023-10-29T16:21:40.757Z,98394.13
2023-10-29T16:24:13.200Z,98389.72
2023-10-29T16:26:47.864Z,98397.88
2023-10-29T16:29:21.324Z,98400.03
2023-10-29T16:31:54.510Z,98409.53
2023-10-29T16:34:22.653Z,98412.34
2023-10-29T16:36:52.610Z,98414.66
2023-10-29T16:39:22.412Z,98415.59
2023-10-29T16:41:50.436Z,98419.41
2023-10-29T16:44:18.317Z,98409.09
2023-10-29T16:46:48.574Z,98412.44
2023-10-29T16:49:20.006Z,98418.25
2023-10-29T16:51:54.603Z,98419.97
2023-10-29T16:54:22.380Z,98425.88
2023-10-29T16:56:53.931Z,98437.00
2023-10-29T16:59:32.386Z,98435.03
2023-10-29T17:02:01.555Z,98435.94
2023-10-29T17:04:29.094Z,98441.00
2023-10-29T17:06:56.030Z,98440.44
2023-10-29T17:09:23.480Z,98435.09
2023-10-29T17:11:51.385Z,98437.41
2023-10-29T17:14:21.353Z,98438.06
2023-10-29T17:16:56.670Z,98441.66
2023-10-29T17:19:25.681Z,98431.44
2023-10-29T17:21:52.647Z,98426.94
2023-10-29T17:24:26.895Z,98441.28
2023-10-29T17:26:56.566Z,98441.97
2023-10-29T17:29:29.217Z,98444.06
2023-10-29T17:32:00.367Z,98444.28
2023-10-29T17:34:29.060Z,98440.59
2023-10-29T17:37:01.041Z,98442.44
2023-10-29T17:39:35.692Z,98438.13
2023-10-29T17:42:05.824Z,98428.50
2023-10-29T17:44:33.773Z,98426.53
2023-10-29T17:47:21.020Z,98434.50
2023-10-29T17:49:52.502Z,98431.28
2023-10-29T17:52:21.909Z,98426.38
2023-10-29T17:54:50.171Z,98438.53
2023-10-29T17:57:21.245Z,98437.59
2023-10-29T17:59:49.919Z,98439.66
2023-10-29T18:02:21.856Z,98451.59
2023-10-29T18:04:56.441Z,98439.53
2023-10-29T18:07:24.190Z,98447.97
2023-10-29T18:09:51.727Z,98442.84
2023-10-29T18:12:20.142Z,98447.00
2023-10-29T18:14:49.983Z,98445.84
2023-10-29T18:17:25.961Z,98435.84
2023-10-29T18:19:53.402Z,98442.22
2023-10-29T18:22:20.547Z,98446.72
2023-10-29T18:24:47.541Z,98444.50
2023-10-29T18:27:15.512Z,98454.75
2023-10-29T18:29:43.004Z,98443.34
2023-10-29T18:32:14.010Z,98444.38
2023-10-29T18:34:43.196Z,98451.31
2023-10-29T18:37:14.784Z,98447.03
2023-10-29T18:39:46.871Z,98448.06
2023-10-29T18:42:19.324Z,98447.69
2023-10-29T18:44:47.487Z,98441.56
2023-10-29T18:47:22.973Z,98437.88
2023-10-29T18:49:54.609Z,98442.72
2023-10-29T18:52:32.970Z,98438.69
2023-10-29T18:55:01.289Z,98444.00
2023-10-29T18:57:40.409Z,98447.69
2023-10-29T19:00:12.838Z,98430.09
2023-10-29T19:02:40.632Z,98429.13
2023-10-29T19:05:13.974Z,98428.56
2023-10-29T19:07:41.703Z,98428.56
2023-10-29T19:10:10.601Z,98424.06
2023-10-29T19:12:39.071Z,98430.16
2023-10-29T19:15:07.686Z,98424.63
2023-10-29T19:17:42.423Z,98430.31
2023-10-29T19:20:12.508Z,98435.63
2023-10-29T19:22:42.840Z,98440.00
2023-10-29T19:25:14.360Z,98434.53
2023-10-29T19:27:42.083Z,98443.53
2023-10-29T19:30:14.337Z,98446.38
2023-10-29T19:32:46.166Z,98445.47
2023-10-29T19:35:14.682Z,98444.78
2023-10-29T19:37:42.030Z,98439.47
2023-10-29T19:40:13.772Z,98442.94
2023-10-29T19:42:41.845Z,98443.75
2023-10-29T19:45:13.675Z,98435.19
2023-10-29T19:47:44.960Z,98427.22
2023-10-29T19:50:16.633Z,98436.22
2023-10-29T19:52:46.621Z,98438.06
2023-10-29T19:55:17.019Z,98440.53
2023-10-29T19:57:50.972Z,98439.72
2023-10-29T20:00:21.550Z,98443.41
2023-10-29T20:02:50.160Z,98444.22
2023-10-29T20:05:20.484Z,98456.69
2023-10-29T20:07:51.583Z,98448.34
2023-10-29T20:10:28.869Z,98434.44
2023-10-29T20:12:56.756Z,98432.03
2023-10-29T20:15:28.960Z,98418.63
2023-10-29T20:17:57.256Z,98429.13
2023-10-29T20:20:31.010Z,98436.75
2023-10-29T20:23:00.404Z,98431.63
2023-10-29T20:25:32.680Z,98428.16
2023-10-29T20:28:22.882Z,98432.91
2023-10-29T20:30:51.748Z,98421.66
2023-10-29T20:33:20.688Z,98426.00
2023-10-29T20:35:48.429Z,98429.94
2023-10-29T20:38:20.770Z,98435.72
2023-10-29T20:40:49.718Z,98441.91
2023-10-29T20:43:20.742Z,98445.00
2023-10-29T20:45:51.859Z,98455.91
2023-10-29T20:48:23.577Z,98459.03
2023-10-29T20:51:02.868Z,98454.56
2023-10-29T20:53:31.451Z,98468.09
2023-10-29T20:56:04.989Z,98468.75
2023-10-29T20:58:33.916Z,98458.13
2023-10-29T21:01:05.879Z,98468.41
2023-10-29T21:03:34.723Z,98460.00
2023-10-29T21:06:02.810Z,98465.34
2023-10-29T21:08:33.010Z,98464.59
2023-10-29T21:11:17.630Z,98461.38
2023-10-29T21:13:49.524Z,98463.88
2023-10-29T21:16:24.058Z,98464.53
2023-10-29T21:18:54.213Z,98473.72
2023-10-29T21:21:29.322Z,98472.75
2023-10-29T21:24:02.419Z,98477.09
2023-10-29T21:26:31.944Z,98480.75
2023-10-29T21:28:59.506Z,98465.66
2023-10-29T21:31:28.049Z,98472.25
2023-10-29T21:33:55.203Z,98472.69
2023-10-29T21:36:23.656Z,98481.88
2023-10-29T21:38:56.458Z,98491.66
2023-10-29T21:41:30.932Z,98490.28
2023-10-29T21:44:02.358Z,98492.31
2023-10-29T21:46:35.953Z,98481.09
2023-10-29T21:49:04.880Z,98488.44
2023-10-29T21:51:35.357Z,98495.81
2023-10-29T21:54:04.213Z,98487.25
2023-10-29T21:56:37.401Z,98491.94
2023-10-29T21:59:08.231Z,98484.84
2023-10-29T22:01:36.914Z,98476.88
2023-10-29T22:04:12.337Z,98479.53
2023-10-29T22:06:40.681Z,98472.78
2023-10-29T22:09:10.653Z,98490.19
2023-10-29T22:11:39.269Z,98492.22
2023-10-29T22:14:08.392Z,98487.13
2023-10-29T22:16:39.488Z,98493.47
2023-10-29T22:19:10.104Z,98494.28
2023-10-29T22:21:38.420Z,98493.91
2023-10-29T22:24:29.077Z,98493.47
2023-10-29T22:26:56.918Z,98505.72
2023-10-29T22:29:24.739Z,98501.44
2023-10-29T22:31:59.555Z,98499.22
2023-10-29T22:34:27.101Z,98508.16
2023-10-29T22:36:57.920Z,98516.53
2023-10-29T22:39:32.043Z,98517.34
2023-10-29T22:41:59.820Z,98524.28
2023-10-29T22:44:31.601Z,98525.69
2023-10-29T22:47:05.278Z,98513.44
2023-10-29T22:49:33.929Z,98522.66
2023-10-29T22:52:04.645Z,98517.34
2023-10-29T22:54:35.404Z,98512.47
2023-10-29T22:57:07.013Z,98508.63
2023-10-29T22:59:36.537Z,98517.16
2023-10-29T23:02:06.899Z,98516.16
2023-10-29T23:04:37.264Z,98525.13
2023-10-29T23:07:07.379Z,98532.44
2023-10-29T23:09:35.323Z,98529.56
2023-10-29T23:12:04.062Z,98527.72
2023-10-29T23:14:44.876Z,98517.94
2023-10-29T23:17:12.795Z,98513.22
2023-10-29T23:19:41.581Z,98505.66
2023-10-29T23:22:08.947Z,98502.81
2023-10-29T23:24:39.576Z,98507.09
2023-10-29T23:27:07.856Z,98524.25
2023-10-29T23:29:37.724Z,98525.66
2023-10-29T23:32:07.539Z,98536.69
2023-10-29T23:34:44.183Z,98532.97
2023-10-29T23:37:12.145Z,98534.84
2023-10-29T23:39:40.583Z,98528.72
2023-10-29T23:42:11.260Z,98530.13
2023-10-29T23:44:43.907Z,98535.44
2023-10-29T23:47:18.227Z,98527.06
2023-10-29T23:49:50.739Z,98529.28
2023-10-29T23:52:21.090Z,98516.00
2023-10-29T23:54:49.994Z,98529.28
2023-10-29T23:57:20.556Z,98524.16
2023-10-29T23:59:54.484Z,98522.78
